Latest Weather Observations for Green Cape

IDN60801

Issued at 7:52 am EST Monday 27 May 2024 (issued every 10 minutes, with the page automatically refreshed every 10 minutes)

About weather observations | Map of weather stations | Latest weather observations for NSW | Other Formats
Station Details ID: 069137 Name: GREEN CAPE AWS Lat: -37.26 Lon: 150.05 Height: 19.4 m
Data from the previous 72 hours. | See also: Recent months at Green Cape
Date/Time
EST
Temp
°C
App
Temp
°C
Dew
Point
°C
Rel
Hum
%
Delta-T
°C
Wind Press
QNH
hPa
Press
MSL
hPa
Rain since
9am
mm
Dir  Spd
km/h
Gust
km/h
Spd
kts
Gust
kts
27/07:30am 11.7 7.4 7.8 77 1.9 W 20 22 11 12 1024.8 1024.8 0.2
27/07:00am 12.2 7.4 8.7 79 1.7 W 24 30 13 16 1024.7 1024.7 0.2
27/06:30am 11.8 6.5 8.5 80 1.6 W 26 33 14 18 1024.5 1024.5 0.2
27/06:00am 11.7 7.2 8.6 81 1.5 W 22 28 12 15 1024.4 1024.4 0.2
27/05:30am 11.7 6.9 8.9 83 1.4 W 24 30 13 16 1024.4 1024.4 0.0
27/05:00am 11.0 6.7 9.3 89 0.8 W 22 28 12 15 1024.0 1024.0 0.0
27/04:30am 11.8 8.3 10.2 90 0.8 W 19 22 10 12 1023.8 1023.8 0.0
27/04:00am 11.4 7.2 9.8 90 0.8 W 22 26 12 14 1023.7 1023.7 0.0
27/03:30am 11.7 7.6 10.1 90 0.8 W 22 26 12 14 1023.9 1023.9 0.0
27/03:00am 12.0 8.0 10.4 90 0.8 W 22 26 12 14 1024.0 1024.0 0.0
27/02:30am 12.2 8.8 10.4 89 0.9 WNW 19 22 10 12 1024.1 1024.1 0.0
27/02:00am 12.0 8.5 10.2 89 0.9 W 19 20 10 11 1024.0 1024.0 0.0
27/01:30am 12.1 8.5 10.7 91 0.7 W 20 22 11 12 1023.9 1023.9 0.0
27/01:00am 12.0 9.4 10.6 91 0.7 W 15 17 8 9 1024.0 1024.0 0.0
27/12:30am 12.5 10.0 11.1 91 0.7 W 15 17 8 9 1024.0 1024.0 0.0
27/12:00am 12.3 9.8 10.9 91 0.7 WNW 15 17 8 9 1024.1 1024.1 0.0
 
Date/Time
EST
Temp
°C
App
Temp
°C
Dew
Point
°C
Rel
Hum
%
Delta-T
°C
Wind Press
QNH
hPa
Press
MSL
hPa
Rain since
9am
mm
Dir  Spd
km/h
Gust
km/h
Spd
kts
Gust
kts
26/11:30pm 12.3 9.4 11.0 92 0.7 W 17 19 9 10 1024.3 1024.3 0.0
26/11:00pm 12.6 9.4 11.3 92 0.7 WNW 19 20 10 11 1024.3 1024.3 0.0
26/10:30pm 13.2 11.2 11.4 89 1.0 W 13 17 7 9 1024.3 1024.3 0.0
26/10:00pm 13.3 11.3 11.5 89 1.0 W 13 15 7 8 1024.5 1024.5 0.0
26/09:30pm 13.3 11.7 11.4 88 1.0 W 11 13 6 7 1024.6 1024.6 0.0
26/09:00pm 13.5 11.8 11.2 86 1.2 W 11 13 6 7 1024.6 1024.6 0.0
26/08:30pm 13.6 11.6 11.5 87 1.1 W 13 17 7 9 1024.6 1024.6 0.0
26/08:00pm 14.2 11.9 11.9 86 1.2 W 15 19 8 10 1024.7 1024.7 0.0
26/07:30pm 15.1 12.9 12.1 82 1.6 SW 15 19 8 10 1024.6 1024.6 0.0
26/07:00pm 15.0 11.8 12.0 82 1.6 SSW 20 22 11 12 1024.3 1024.3 0.0
26/06:30pm 15.1 12.1 12.1 82 1.6 SSW 19 22 10 12 1024.2 1024.2 0.0
26/06:00pm 15.3 12.2 12.2 82 1.7 SSW 20 24 11 13 1024.0 1024.0 0.0
26/05:30pm 15.5 12.4 12.3 81 1.7 S 20 22 11 12 1023.9 1023.9 0.0
26/05:00pm 15.7 12.6 12.3 80 1.9 S 20 22 11 12 1023.6 1023.6 0.0
26/04:30pm 15.9 12.4 12.1 78 2.1 SSW 22 24 12 13 1023.5 1023.5 0.0
26/04:00pm 16.3 12.8 12.1 76 2.3 S 22 24 12 13 1023.5 1023.5 0.0
26/03:30pm 16.8 13.7 12.1 74 2.6 S 20 22 11 12 1023.3 1023.3 0.0
26/03:00pm 17.5 14.6 12.2 71 2.9 S 19 20 10 11 1023.4 1023.4 0.0
26/02:30pm 18.8 16.8 12.8 68 3.4 S 15 19 8 10 1023.4 1023.4 0.0
26/02:00pm 19.2 17.6 12.9 67 3.5 S 13 15 7 8 1023.5 1023.5 0.0
26/01:30pm 19.1 17.5 12.8 67 3.5 S 13 15 7 8 1023.6 1023.6 0.0
26/01:00pm 17.8 17.4 12.9 73 2.7 WSW 7 9 4 5 1023.9 1023.9 0.0
26/12:30pm 17.7 17.4 12.8 73 2.7 WSW 6 7 3 4 1024.3 1024.3 0.0
26/12:00pm 16.7 15.5 11.6 72 2.8 W 9 11 5 6 1024.7 1024.7 0.0
26/11:30am 16.1 14.3 12.1 77 2.2 W 13 15 7 8 1025.1 1025.1 0.0
26/11:00am 15.6 13.4 12.0 79 1.9 W 15 19 8 10 1025.5 1025.5 0.0
26/10:30am 14.9 12.1 11.5 80 1.8 W 17 20 9 11 1025.9 1025.9 0.0
26/10:00am 14.0 10.5 10.8 81 1.7 WNW 20 24 11 13 1025.9 1025.9 0.0
26/09:30am 13.5 9.5 10.5 82 1.6 W 22 24 12 13 1026.0 1026.0 0.0
26/09:00am 13.0 9.0 10.5 85 1.3 WNW 22 26 12 14 1025.9 1025.9 0.0
26/08:30am 12.2 7.7 9.9 86 1.2 WNW 24 28 13 15 1025.7 1025.7 0.0
26/08:00am 12.0 7.5 10.1 88 1.0 W 24 30 13 16 1025.6 1025.6 0.0
26/07:30am 11.8 8.0 9.9 88 1.0 W 20 28 11 15 1025.4 1025.4 0.0
26/07:00am 11.8 7.6 9.9 88 1.0 W 22 28 12 15 1025.3 1025.3 0.0
26/06:30am 12.1 8.4 10.2 88 1.0 W 20 24 11 13 1025.1 1025.1 0.0
26/06:00am 11.9 7.7 9.8 87 1.1 WNW 22 24 12 13 1024.9 1024.9 0.0
26/05:30am 11.8 7.5 9.5 86 1.2 WNW 22 26 12 14 1024.9 1024.9 0.0
26/05:00am 12.3 8.7 10.4 88 1.0 WNW 20 24 11 13 1024.9 1024.9 0.0
26/04:30am 12.4 8.9 10.8 90 0.8 W 20 26 11 14 1024.8 1024.8 0.0
26/04:00am 12.2 8.7 10.8 91 0.7 WNW 20 24 11 13 1024.8 1024.8 0.0
26/03:30am 12.0 8.0 10.6 91 0.7 W 22 24 12 13 1025.1 1025.1 0.0
26/03:00am 12.6 9.7 11.0 90 0.8 W 17 20 9 11 1025.2 1025.2 0.0
26/02:30am 12.5 9.5 10.6 88 1.0 WNW 17 19 9 10 1025.5 1025.5 0.0
26/02:00am 12.6 9.7 11.0 90 0.8 W 17 19 9 10 1025.7 1025.7 0.0
26/01:30am 12.6 9.7 11.0 90 0.8 W 17 19 9 10 1025.6 1025.6 0.0
26/01:00am 12.7 10.6 11.1 90 0.8 WNW 13 15 7 8 1025.6 1025.6 0.0
26/12:30am 12.9 10.8 11.3 90 0.8 W 13 17 7 9 1025.6 1025.6 0.0
26/12:00am 13.1 11.5 11.5 90 0.8 W 11 13 6 7 1025.7 1025.7 0.0
 
Date/Time
EST
Temp
°C
App
Temp
°C
Dew
Point
°C
Rel
Hum
%
Delta-T
°C
Wind Press
QNH
hPa
Press
MSL
hPa
Rain since
9am
mm
Dir  Spd
km/h
Gust
km/h
Spd
kts
Gust
kts
25/11:30pm 13.3 11.7 11.5 89 1.0 W 11 15 6 8 1025.8 1025.8 0.0
25/11:00pm 13.2 10.8 11.4 89 0.9 W 15 17 8 9 1025.9 1025.9 0.0
25/10:30pm 13.5 11.6 11.7 89 1.0 W 13 15 7 8 1026.1 1026.1 0.0
25/10:00pm 13.6 11.7 11.7 88 1.0 W 13 15 7 8 1026.2 1026.2 0.0
25/09:30pm 13.8 12.2 11.7 87 1.1 W 11 13 6 7 1026.3 1026.3 0.0
25/09:00pm 14.2 12.3 11.9 86 1.2 W 13 15 7 8 1026.2 1026.2 0.0
25/08:30pm 14.2 12.3 11.7 85 1.3 WNW 13 15 7 8 1026.2 1026.2 0.0
25/08:00pm 14.3 12.8 11.8 85 1.3 NW 11 15 6 8 1026.2 1026.2 0.0
25/07:30pm 14.8 13.7 11.9 83 1.6 N 9 11 5 6 1026.2 1026.2 0.0
25/07:00pm 16.0 14.8 11.6 75 2.4 N 9 11 5 6 1026.1 1026.1 0.0
25/06:30pm 16.2 15.1 12.0 76 2.3 NNE 9 11 5 6 1026.0 1026.0 0.0
25/06:00pm 16.5 15.6 12.7 78 2.1 NNE 9 13 5 7 1026.0 1026.0 0.0
25/05:30pm 16.2 14.6 11.6 74 2.5 NNE 11 13 6 7 1025.7 1025.7 0.0
25/05:00pm 16.3 14.6 11.2 72 2.7 NNE 11 13 6 7 1025.7 1025.7 0.0
25/04:30pm 16.7 15.5 11.6 72 2.8 NNE 9 13 5 7 1025.7 1025.7 0.0
25/04:00pm 17.2 15.3 11.9 71 2.9 NE 13 15 7 8 1025.6 1025.6 0.0
25/03:30pm 17.8 16.9 12.5 71 2.9 NNE 9 13 5 7 1025.6 1025.6 0.0
25/03:00pm 18.2 17.7 12.6 70 3.1 ENE 7 9 4 5 1025.7 1025.7 0.0
25/02:30pm 18.0 18.0 13.5 75 2.5 ESE 6 7 3 4 1025.8 1025.8 0.0
25/02:00pm 18.2 18.4 13.1 72 2.9 SE 4 7 2 4 1026.0 1026.0 0.0
25/01:30pm 19.4 19.4 13.6 69 3.3 SSE 6 6 3 3 1026.1 1026.1 0.0
25/01:00pm 19.6 19.7 14.4 72 3.0 SE 7 9 4 5 1026.4 1026.4 0.0
25/12:30pm 19.0 18.9 13.8 72 3.0 SSE 7 11 4 6 1026.7 1026.7 0.0
25/12:00pm 17.2 17.0 13.1 77 2.3 WSW 6 7 3 4 1027.1 1027.1 0.0
25/11:30am 16.4 15.8 12.4 77 2.2 WSW 7 11 4 6 1027.6 1027.6 0.0
25/11:00am 15.7 14.5 11.5 76 2.2 W 9 13 5 7 1028.0 1028.0 0.0
25/10:30am 14.8 12.9 10.6 76 2.2 W 11 13 6 7 1028.4 1028.4 0.0
25/10:00am 14.8 13.2 11.6 81 1.7 W 11 13 6 7 1028.5 1028.5 0.0
25/09:30am 12.8 10.5 10.3 85 1.3 W 13 15 7 8 1028.6 1028.6 0.0
25/09:00am 12.3 8.6 10.0 86 1.2 W 20 22 11 12 1028.5 1028.5 0.0
25/08:30am 12.0 8.5 10.1 88 1.0 W 19 20 10 11 1028.5 1028.5 0.0
25/08:00am 11.7 8.9 10.1 90 0.8 W 15 17 8 9 1028.2 1028.2 0.0
25/07:30am 11.5 8.3 9.8 89 0.9 W 17 19 9 10 1028.0 1028.0 0.0
25/07:00am 11.7 8.5 9.8 88 1.0 W 17 20 9 11 1028.0 1028.0 0.0
25/06:30am 11.5 7.9 9.8 89 0.9 WNW 19 20 10 11 1027.9 1027.9 0.0
25/06:00am 11.7 8.5 9.8 88 1.0 W 17 19 9 10 1027.7 1027.7 0.0
25/05:30am 11.6 8.3 9.5 87 1.1 W 17 19 9 10 1027.6 1027.6 0.0
25/05:00am 11.7 8.1 9.8 88 1.0 W 19 22 10 12 1027.4 1027.4 0.0
25/04:30am 11.8 8.6 9.9 88 1.0 W 17 20 9 11 1027.4 1027.4 0.0
25/04:00am 11.8 8.6 9.9 88 1.0 W 17 19 9 10 1027.4 1027.4 0.0
25/03:30am 12.0 8.8 10.1 88 1.0 W 17 20 9 11 1027.4 1027.4 0.0
25/03:00am 12.1 8.8 9.7 85 1.2 W 17 19 9 10 1027.4 1027.4 0.0
25/02:30am 12.1 9.2 9.5 84 1.3 WNW 15 19 8 10 1027.5 1027.5 0.0
25/02:00am 12.2 9.3 9.8 85 1.2 WNW 15 19 8 10 1027.6 1027.6 0.0
25/01:30am 12.6 9.0 9.8 83 1.4 WNW 19 20 10 11 1027.6 1027.6 0.0
25/01:00am 12.6 8.8 9.2 80 1.7 W 19 20 10 11 1027.7 1027.7 0.0
25/12:30am 12.7 9.5 9.9 83 1.4 W 17 20 9 11 1027.9 1027.9 0.0
25/12:00am 12.8 8.9 9.4 80 1.7 WNW 20 22 11 12 1028.0 1028.0 0.0
 
Date/Time
EST
Temp
°C
App
Temp
°C
Dew
Point
°C
Rel
Hum
%
Delta-T
°C
Wind Press
QNH
hPa
Press
MSL
hPa
Rain since
9am
mm
Dir  Spd
km/h
Gust
km/h
Spd
kts
Gust
kts
24/11:30pm 12.8 8.9 9.3 79 1.8 W 20 22 11 12 1028.0 1028.0 0.0
24/11:00pm 12.9 9.6 9.4 79 1.8 W 17 20 9 11 1027.9 1027.9 0.0
24/10:30pm 13.0 9.3 9.3 78 1.9 W 19 20 10 11 1028.0 1028.0 0.0
24/10:00pm 12.9 9.5 9.2 78 1.9 W 17 19 9 10 1028.1 1028.1 0.0
24/09:30pm 13.1 10.6 9.7 80 1.7 W 13 17 7 9 1028.1 1028.1 0.0
24/09:00pm 13.4 10.2 9.8 79 1.8 W 17 19 9 10 1028.0 1028.0 0.0
24/08:30pm 14.1 11.6 9.7 75 2.3 W 13 17 7 9 1028.0 1028.0 0.0
24/08:00pm 14.9 11.0 8.8 67 3.1 SW 19 20 10 11 1027.7 1027.7 0.0
24/07:30pm 15.1 10.7 8.8 66 3.2 SSW 22 28 12 15 1027.4 1027.4 0.0
24/07:00pm 15.3 10.9 10.3 72 2.6 S 24 28 13 15 1027.3 1027.3 0.0
24/06:30pm 15.3 11.8 10.3 72 2.6 S 19 22 10 12 1027.2 1027.2 0.0
24/06:00pm 15.4 12.0 10.4 72 2.6 SSW 19 22 10 12 1026.8 1026.8 0.0
24/05:30pm 15.5 12.1 10.5 72 2.6 SSW 19 20 10 11 1026.5 1026.5 0.0
24/05:00pm 15.8 12.9 11.0 73 2.5 SSW 17 20 9 11 1026.3 1026.3 0.0
24/04:30pm 15.9 12.5 10.7 71 2.8 S 19 20 10 11 1026.2 1026.2 0.0
24/04:00pm 16.5 13.2 11.0 70 2.9 S 19 20 10 11 1026.1 1026.1 0.0
24/03:30pm 16.8 13.2 10.6 67 3.3 S 20 24 11 13 1026.0 1026.0 0.0
24/03:00pm 17.4 14.3 10.3 63 3.8 S 17 19 9 10 1026.0 1026.0 0.0
24/02:30pm 17.3 14.7 9.5 60 4.1 S 13 17 7 9 1026.1 1026.1 0.0
24/02:00pm 16.9 13.4 8.8 59 4.1 SSW 17 20 9 11 1026.1 1026.1 0.0
24/01:30pm 17.2 12.8 8.9 58 4.3 SSW 22 24 12 13 1026.2 1026.2 0.0
24/01:00pm 17.0 13.2 9.7 62 3.8 SW 20 24 11 13 1026.4 1026.4 0.0
24/12:30pm 16.7 13.2 10.3 66 3.4 SW 19 24 10 13 1026.5 1026.5 0.0
24/12:00pm 16.7 13.8 9.6 63 3.7 SW 15 22 8 12 1026.7 1026.7 0.0
24/11:30am 16.1 13.0 10.2 68 3.1 W 17 22 9 12 1027.1 1027.1 0.0
24/11:00am 15.3 11.1 9.9 70 2.8 WNW 22 26 12 14 1027.3 1027.3 0.0
24/10:30am 14.2 9.5 9.4 73 2.5 W 24 28 13 15 1027.3 1027.3 0.0
24/10:00am 13.7 8.7 9.4 75 2.2 W 26 30 14 16 1027.4 1027.4 0.0
24/09:30am 13.5 7.8 9.7 78 1.9 W 30 33 16 18 1027.3 1027.3 0.0
24/09:00am 13.2 7.4 9.3 77 2.0 W 30 35 16 19 1027.4 1027.4 0.0
24/08:30am 13.1 8.0 9.2 77 2.0 W 26 30 14 16 1027.3 1027.3 0.0
24/08:00am 12.8 8.3 8.7 76 2.0 W 22 28 12 15 1027.2 1027.2 0.0

Other formats

Comma delimited format used in spreadsheet applications
http://www.bom.gov.au/fwo/IDN60801/IDN60801.94934.axf

JavaScript Object Notation format (JSON) in row-major order
http://www.bom.gov.au/fwo/IDN60801/IDN60801.94934.json

Data quality

Most of these data are generated automatically and are frequently updated. Quality checks on data are not normally performed. It is possible for incorrect values to appear. Refer to information at About Latest Weather Observations and please check the disclaimer before using these data.